Atlantic City, New Jersey
Current Conditions -  °F | °C
As of 7:54 AM on Monday 20 Oct 2014 (Local Time) from KACY Reporting Station
Clear Clear  
Wind Chill: 33°   Ceiling: Unl
Heat Index: 33°   Visibility: 10mi
Dew Point: 31°   Wind: 0mph
Humidity: 92%   Direction: NA
Pressure: 30.13"   Gusts: NA
Location:  39.36°N, 74.43°W
Report Text: KACY 201154Z 00000KT 10SM CLR 01/M01 A3013 RMK AO2 SLP205 T00061006 10022 21011 53003
Loading
Personal Weather Stations






























Interactive Weather Map
Tropical Storm Tracking
New forecast layout! Learn more

10-Day Weather Forecast

Advertisements
Track Severe Weather on mobile